SiktMolnbas
>≥ 10km≥ 10km ≥ 2000ft≥ 2000ft
< 10km< 10km < 2000ft< 2000ft
< 8km< 8km < 1500ft< 1500ft
< 5km< 5km < 1000ft< 1000ft
< 3km< 3km < 500ft< 500ft

Nytt 18 jan 2017:

Nytt 17 jan 2017:

ESNQ (13:50 UTC)

Kiruna flygplats

METAR

ESNQ 291350Z 17003KT CAVOK 15/01 Q1013=

TAF

ESNQ 291430Z 2915/2917 21006KT CAVOK=

ESNG (13:50 UTC)

Gällivare (Kavaheden), Lapland Airport

METAR

ESNG 291350Z VRB03KT 360V360 CAVOK 02/// Q1013=

TAF

ESNG 291430Z 2915/2921 24005KT CAVOK=

ESPA (13:50 UTC)

Luleå Airport (Kallax)

METAR

ESPA 291350Z 15008KT CAVOK 15/09 Q1014=

TAF

ESPA 291405Z 2915/2923 17008KT CAVOK RMK MIL=

ESNL (13:20 UTC)

Lycksele flygplats

METAR

ESNL 291320Z AUTO 10004KT 060V140 9999 NCD 19/M01 Q1013=

TAF

Ingen TAF hittades.

ESNU (13:50 UTC)

Umeå City Airport

METAR

ESNU 291350Z 18008KT CAVOK 18/04 Q1014=

TAF

ESNU 291430Z 2915/2924 17007KT CAVOK=

ESNO (13:50 UTC)

Örnsköldsvik flygplats

METAR

ESNO 291350Z 15008KT 090V180 CAVOK 19/04 Q1013=

TAF

ESNO RRA 291430Z 2915/2922 15008KT CAVOK=

ESNK (13:50 UTC)

Kramfors-Sollefteå flygplats

METAR

ESNK 291350Z 19013KT CAVOK 20/06 Q1013=

TAF

ESNK RRA 291430Z 2915/2920 18012KT CAVOK BECMG 2918/2920 10004KT=

ESNN (13:50 UTC)

Sundsvall-Härnösands flygplats (Midlanda)

METAR

ESNN 291350Z 16009KT CAVOK 17/03 Q1013=

TAF

ESNN RRA 291430Z 2915/2924 15010KT CAVOK BECMG 2919/2921 06004KT=

ESNZ (13:50 UTC)

Åre Östersund Airport (Frösön)

METAR

ESNZ 291350Z 16005KT CAVOK 20/02 Q1011=

TAF

ESNZ RRA 291430Z 2915/2922 16005KT CAVOK=

ESNS (13:50 UTC)

Skellefteå flygplats

METAR

ESNS 291350Z AUTO 14008KT 9999 NCD 19/03 Q1013=

TAF

ESNS 291430Z 2915/2922 15006KT CAVOK=

ESGT (13:50 UTC)

Trollhättan-Vänersborgs flygplats (Malöga flygplats)

METAR

ESGT 291350Z 03019G29KT CAVOK 19/08 Q1004=

TAF

ESGT 291430Z 2915/2917 03019G30KT CAVOK=

ESGG (13:50 UTC)

Göteborg-Landvetter flygplats

METAR

ESGG 291350Z 06017KT CAVOK 19/09 Q1001=

TAF

RA

ESGG 291130Z 2912/3012 06017KT CAVOK BECMG 2914/2916 06015G25KT PROB40 3007/3012 9999 -RA BKN025=

ESMT (13:50 UTC)

Halmstads flygplats

METAR

ESMT 291350Z 07016G31KT CAVOK 21/12 Q0998=

TAF

SHRACB

ESMT 291059Z 2912/2921 07016KT 9999 BKN030 TEMPO 2912/2921 08015G25KT SHRA SCT030CB=

ESTA (13:50 UTC)

Ängelholm-Helsingborg flygplats

METAR

ESTA 291350Z 06014KT 9999 BKN031 19/13 Q0997=

TAF

SHRACB

ESTA 291059Z 2912/2921 08020KT 9999 BKN030 TEMPO 2912/2921 08020G30KT SHRA SCT030CB=

ESTL (13:50 UTC)

Ljungbyheds flygplats

METAR

ESTL 291350Z 07012KT 9999 BKN024 19/14 Q0997=

TAF

SHRACB

ESTL 291059Z 2912/2915 09015KT 9999 BKN030 TEMPO 2912/2915 SHRA SCT030CB=

ESMS (13:50 UTC)

Malmö Airport

METAR

ESMS 291350Z 06018KT 9999 BKN010 16/13 Q0996=

TAF

TSSHRABRCB

ESMS 291059Z 2912/3012 07018G30KT 9999 SCT012 BKN018 TEMPO 2912/2921 SHRA BKN008 SCT030CB TEMPO 2921/3012 2000 SHRA TSRA BR BKN004 BKN025CB=

ESDF (13:50 UTC)

Ronneby flygplats

METAR

RA

ESDF 291350Z 05017KT 9999 -RADZ BKN008 15/14 Q0998=

TAF

TSSHRACB

ESDF 291430Z 2915/2921 05013G25KT 9999 SCT020 BKN055 PROB40 2915/2921 4000 SHRA TS BKN008CB=

ESMQ (13:50 UTC)

Kalmar Airport

METAR

ESMQ 291350Z 02011KT 9999 FEW008 OVC023 15/14 Q1000=

TAF

TSSHRACB

ESMQ 291430Z 2915/2922 02015G26KT 9999 BKN030 TEMPO 2915/2922 2000 SHRA TS BKN007CB=

ESMX (13:50 UTC)

Växjö, Smaland Airport

METAR

ESMX 291350Z 06016G27KT 9999 BKN027 OVC033 17/10 Q1001=

TAF

TSSHRACB

ESMX 291430Z 2915/2924 06015G29KT 9999 BKN030 PROB40 2916/2924 3000 SHRA TS BKN009CB=

ESGJ (13:50 UTC)

Jönköping Airport

METAR

ESGJ 291350Z 06019KT CAVOK 19/08 Q1003=

TAF

CB

ESGJ 291430Z 2915/2924 06015G25KT CAVOK TEMPO 2918/2924 BKN025CB=

ESSA (13:50 UTC)

Stockholm-Arlanda flygplats

METAR

ESSA 291350Z 05014KT CAVOK 19/07 Q1009 NOSIG=

TAF

SHRACB

ESSA 291130Z 2912/3012 07012G22KT CAVOK PROB40 3007/3012 SHRA BKN030CB=

ESSB (13:50 UTC)

Stockholm-Bromma flygplats

METAR

ESSB 291350Z 06013KT 020V090 CAVOK 19/05 Q1009=

TAF

ESSB 291430Z 2915/2920 06012G22KT CAVOK=

ESKN (13:50 UTC)

Stockholm-Skavsta flygplats

METAR

ESKN 291350Z 08019KT CAVOK 20/07 Q1006=

TAF

SHRACB

ESKN 291130Z 2912/3012 06014G26KT CAVOK PROB40 3005/3012 SHRA BKN040CB=

ESSP (13:50 UTC)

Norrköping flygplats

METAR

ESSP 291350Z 08016KT CAVOK 20/07 Q1006=

TAF

ESSP 291430Z 2915/2921 06015G25KT CAVOK=

ESSL (13:50 UTC)

Linköping - SAAB Flygplats

METAR

ESSL 291350Z 09019KT CAVOK 19/08 Q1005=

TAF

ESSL 291430Z 2915/2922 08018G28KT CAVOK=

ESSV (13:50 UTC)

Visby flygplats

METAR

ESSV 291350Z 08021G31KT 9999 FEW043 SCT057 19/11 Q1002=

TAF

SHRACB

ESSV 291130Z 2912/2921 08020G36KT CAVOK TEMPO 2912/2916 3000 SHRA BKN030CB PROB40 2916/2921 SHRA BKN030CB=

ESOW (13:50 UTC)

Stockholm-Västerås flygplats

METAR

ESOW 291350Z 08013G24KT 050V120 CAVOK 20/05 Q1009=

TAF

ESOW 291430Z 2915/2917 07013G23KT CAVOK=

ESOE (13:50 UTC)

Örebro flygplats

METAR

ESOE 291350Z 07016KT CAVOK 20/05 Q1007=

TAF

ESOE 291430Z 2915/2924 07016G28KT CAVOK=

ESOK (13:50 UTC)

Karlstad Airport

METAR

ESOK 291350Z 05015KT CAVOK 21/01 Q1007=

TAF

ESOK 291430Z 2915/2921 07015G25KT CAVOK=

ESSD (13:50 UTC)

Borlänge, Dala Airport

METAR

ESSD 291350Z 03010KT 360V060 CAVOK 17/03 Q1010=

TAF

ESSD 291430Z 2915/2919 05010KT CAVOK=

ESGR (13:50 UTC)

Skövde flygplats

METAR

ESGR 291350Z AUTO 06012KT 030V110 9999 OVC120/// 20/07 Q1005=

TAF

Ingen TAF hittades.

ESIB (13:50 UTC)

Såtenäs

METAR

ESIB 291350Z 07016KT CAVOK 21/10 Q1004=

TAF

ESIB 291134Z 2912/2915 07016G28KT CAVOK RMK MIL=

ESNV (13:50 UTC)

Vilhelmina flygplats

METAR

ESNV 291350Z 20005KT 150V250 CAVOK 20/01 Q1012=

TAF

Ingen TAF hittades.

ESST (13:50 UTC)

Torsby flygplats (Fryklanda)

METAR

ESST 291350Z AUTO 08008KT 010V140 9999 FEW140/// 21/04 Q1008=

TAF

Ingen TAF hittades.

ESUT (13:50 UTC)

Hemavans flygplats

METAR

ESUT 291350Z AUTO 11005KT 070V160 9999 NCD 17/01 Q1012=

TAF

Ingen TAF hittades.

ESNX (13:50 UTC)

Arvidsjaur flygplats

METAR

ESNX 291350Z 11004KT 040V140 CAVOK 18/M01 Q1013=

TAF

ESNX 291430Z 2915/2920 VRB02KT CAVOK=

ESIA (13:50 UTC)

Karlsborg

METAR

ESIA 291350Z AUTO 08014KT 9999 BKN130/// 18/09 Q1005=

TAF

Ingen TAF hittades.

ESUD (13:50 UTC)

Storuman

METAR

ESUD 291350Z AUTO VRB02KT 9999 NCD 19/01 Q1012=

TAF

Ingen TAF hittades.

ESUP (13:50 UTC)

Pajala

METAR

ESUP 291350Z 00000KT CAVOK 17/06 Q1013=

TAF

Ingen TAF hittades.

ESPE (13:50 UTC)

Vidsel

METAR

ESPE 291350Z AUTO 12005KT 9999 BKN084/// 19/02 Q1013=

TAF

Ingen TAF hittades.

ESCM (13:50 UTC)

Uppsala

METAR

ESCM 291350Z 07012KT CAVOK 18/06 Q1009=

TAF

Ingen TAF hittades.

ESKM (13:50 UTC)

Mora/Siljan

METAR

ESKM 291350Z AUTO 12011KT 9999 NCD 19/04 Q1010=

TAF

Ingen TAF hittades.

EKRN (13:50 UTC)

Bornholm Airport

METAR

EKRN 291350Z AUTO 04022KT 9999NDV OVC005/// 16/14 Q0993=

TAF

CB

EKRN 291118Z 2912/2921 06015KT 9999 BKN006 TEMPO 2912/2921 06018G28KT SCT008 FEW030CB=

EFIV (13:50 UTC)

Ivalo Airport

METAR

EFIV 291350Z AUTO 35003KT CAVOK 14/08 Q1014=

TAF

Ingen TAF hittades.

EFKT (13:50 UTC)

Kittilä Airport

METAR

EFKT 291350Z AUTO 21003KT CAVOK 16/05 Q1014=

TAF

Ingen TAF hittades.

EFRO (13:50 UTC)

Rovaniemi Airport

METAR

SHRA

EFRO 291350Z AUTO VRB03KT 050V210 9999 VCSH BKN080 17/05 Q1014=

TAF

BRCB

EFRO 291127Z 2912/3012 34005KT 9999 FEW025 SCT060 PROB30 2912/2916 FEW045CB PROB30 2923/3006 2000 BR BKN003 PROB30 3008/3012 FEW040CB=

EFKE (13:50 UTC)

Kemi-Tornio Airport

METAR

TCU

EFKE 291350Z 25009KT 210V280 9999 FEW030TCU 16/09 Q1014=

TAF

EFKE 291127Z 2912/2921 25005KT CAVOK=

EFKS (13:50 UTC)

Kuusamo Airport

METAR

EFKS 291350Z AUTO 15005KT CAVOK 17/06 Q1014=

TAF

Ingen TAF hittades.

EFOU (13:50 UTC)

Oulu Airport

METAR

EFOU 291350Z AUTO 34008KT 300V360 9999 SCT071/// BKN086/// 16/10 Q1014=

TAF

CB

EFOU 291127Z 2912/3012 34005KT 9999 FEW035 PROB30 2912/2918 FEW045CB=

EFKI (13:50 UTC)

Kajaani Airport

METAR

EFKI 291350Z AUTO 30005KT 270V350 CAVOK 19/06 Q1014=

TAF

Ingen TAF hittades.

EFKK (13:50 UTC)

Kokkola-Pietarsaari/Kruunupyy Airport

METAR

EFKK 291350Z AUTO 36009KT CAVOK 19/05 Q1014=

TAF

EFKK 291128Z 2912/2921 34006KT CAVOK=

EFVA (13:50 UTC)

Vaasa Airport

METAR

EFVA 291350Z AUTO 35007KT 320V040 9999 FEW068/// 20/06 Q1013=

TAF

EFVA 291128Z 2912/3012 35006KT CAVOK BECMG 3006/3008 06013KT=

EFKU (13:50 UTC)

Kuopio Airport

METAR

EFKU 291350Z AUTO 12004KT 090V160 9999 FEW045 19/09 Q1014=

TAF

EFKU 291126Z 2912/3012 10004KT 9999 SCT045=

EFJY (13:50 UTC)

Jyväskylä Airport

METAR

EFJY 291350Z AUTO VRB03KT CAVOK 18/06 Q1013=

TAF

EFJY 291128Z 2912/3012 08006KT CAVOK TEMPO 3007/3012 09015G25KT=

EFTP (13:50 UTC)

Tampere-Pirkkala Airport

METAR

EFTP 291350Z AUTO 10004KT 030V160 CAVOK 20/09 Q1012=

TAF

EFTP 291128Z 2912/3012 10008KT CAVOK BECMG 3006/3008 07016G28KT=

EFPO (13:50 UTC)

Pori Airport

METAR

EFPO 291350Z AUTO 06008KT 360V100 9999 SCT063/// 20/06 Q1011=

TAF

EFPO 291128Z 2912/2921 09008KT CAVOK=

EFTU (13:50 UTC)

Turku Airport

METAR

EFTU 291350Z AUTO 10011KT CAVOK 21/03 Q1010=

TAF

EFTU 291129Z 2912/3012 09009KT CAVOK BECMG 3006/3008 07015G25KT=

EFHK (13:50 UTC)

Helsinki-Vantaa Airport

METAR

EFHK 291350Z 07013KT CAVOK 20/03 Q1011 NOSIG=

TAF

Ingen TAF hittades.

EFMA (13:50 UTC)

Mariehamn Airport

METAR

EFMA 291350Z 03010KT 360V060 CAVOK 19/05 Q1010=

TAF

EFMA 291129Z 2912/2921 07009KT CAVOK=

EKSB (13:50 UTC)

Sønderborg Airport

METAR

EKSB 291350Z 07005KT 8000 BKN006 16/15 Q0996=

TAF

SHRABRCB

EKSB 291154Z 2912/2921 09008KT 4000 BR BKN004 TEMPO 2912/2915 6000 NSW SCT004 BKN010 TEMPO 2915/2921 6000 SHRA SCT006 BKN030CB=

EKSP (13:51 UTC)

Vojens Airport

METAR

SHRACB

EKSP 291351Z 07003KT 8000 -SHRA FEW004CB BKN006 BKN011 16/15 Q0997=

TAF

TSSHRABRCB

EKSP RRA 291147Z 2912/3012 09012KT 6000 BKN006 TEMPO 2912/2917 1800 SHRA BR BKN003 SCT040CB BECMG 2916/2919 33005KT TEMPO 2917/3012 1800 TSRA BR BKN003 SCT040CB=

EKEB (13:50 UTC)

Esbjerg Airport

METAR

EKEB 291350Z AUTO 05005KT 020V100 5000NDV OVC006/// 17/15 Q0998=

TAF

SHRABRCB

EKEB 291118Z 2912/2921 08008KT 8000 BKN006 TEMPO 2912/2918 2500 RA BR BKN004 TEMPO 2918/2921 2500 SHRA BKN004 SCT020CB=

EKYT (13:50 UTC)

Aalborg Airport

METAR

SHRA

EKYT 291350Z AUTO 04009KT 9999NDV -SHRA BKN045/// 16/14 Q1000 RESHRA=

TAF

SHRACB

EKYT 291110Z 2912/3012 05015KT 9999 SCT030 BKN100 TEMPO 2912/2921 05015G25KT 4000 SHRA BKN012 BKN040CB BECMG 2921/2924 04008KT TEMPO 2921/3012 3000 SHRA BKN005 BKN040CB=

EKKA (13:50 UTC)

Karup Airport

METAR

EKKA 291350Z 05010KT 9999 OVC022 15/15 Q0999=

TAF

TSSHRACB

EKKA 291110Z 2912/3012 08012KT 9999 SCT006 BKN020 TEMPO 2912/2915 4000 SHRA BKN008 BKN040CB TEMPO 2915/3012 2500 SHRA BKN004 BKN040CB PROB40 2915/3012 TSRA BECMG 2918/2921 02005KT BECMG 2923/3002 VRB05KT=

EKBI (13:50 UTC)

Billund Airport

METAR

SHRACB

EKBI 291350Z 06006KT 5000 -SHRA BKN006 FEW020CB 16/15 Q0998=

TAF

TSSHRABRCB

EKBI 291059Z 2912/3012 09010KT 8000 BKN006 TEMPO 2912/2915 2000 SHRA BR BKN004 SCT030CB BECMG 2914/2917 36005KT TEMPO 2915/3012 2000 SHRA TSRA BR BKN003 SCT030CB=

EKVD (13:50 UTC)

Kolding Airport

METAR

RABR

EKVD 291350Z 07006KT 4000 -RA BR SCT005 BKN007 16/15 Q0998=

TAF

RABR

EKVD 291154Z 2912/2916 08008KT 6000 BKN006 TEMPO 2912/2916 1200 RA BR BKN004=

EKOD (13:50 UTC)

Odense Airport

METAR

BR

EKOD 291350Z 03003KT 4000 BR FEW004 BKN007 OVC018 16/15 Q0997=

TAF

SHRABRCB

EKOD 291154Z 2912/2918 09008KT 8000 OVC015 TEMPO 2912/2918 4000 SHRA BR BKN008 SCT030CB=

EKCH (13:50 UTC)

Copenhagen Airport, Kastrup

METAR

EKCH 291350Z 06012G23KT 9999 BKN022 18/14 Q0997 TEMPO BKN014=

TAF

TSSHRABRCB

EKCH 291059Z 2912/3012 08013KT 9999 BKN020 TEMPO 2912/2919 SHRA BKN010 SCT030CB BECMG 2916/2919 01010KT TEMPO 2919/3012 VRB15G30KT 3000 SHRA TSRA BR BKN008 BKN025CB=

EKRK (13:50 UTC)

Copenhagen Airport, Roskilde

METAR

EKRK 291350Z AUTO 08011G21KT 050V110 9999NDV BKN019/// BKN023/// 18/14 Q0997=

TAF

SHRACB

EKRK 291118Z 2912/2921 08012KT 9999 BKN015 TEMPO 2912/2921 SHRA BKN010 SCT030CB=

ENRY (13:50 UTC)

Moss flygplats, Rygge

METAR

ENRY 291350Z 05011KT CAVOK 20/04 Q1006=

TAF

ENRY 291100Z 2912/3012 05015KT CAVOK=

ENGM (13:50 UTC)

Oslo flygplats, Gardermoen

METAR

ENGM 291350Z 09009KT 060V130 CAVOK 20/03 Q1008 NOSIG=

TAF

ENGM 291100Z 2912/3012 05010KT CAVOK=

ENTO (13:50 UTC)

Sandefjord flygplats, Torp

METAR

ENTO 291350Z 05011KT 010V100 CAVOK 20/06 Q1006=

TAF

ENTO 291100Z 2912/3012 05012KT CAVOK TEMPO 2912/2915 05015G25KT=

ENCN (13:50 UTC)

Kristiansand flygplats, Kjevik

METAR

SHRA

ENCN 291350Z 05013KT 9999 -SHRA NSC 15/09 Q1004=

TAF

SHRACB

ENCN 291100Z 2912/2921 06015KT 9999 -RA FEW030 BKN080 TEMPO 2912/2915 06020G35KT TEMPO 2915/2918 06015G25KT PROB30 TEMPO 2912/2915 SHRA BKN030 FEW060CB=

ENZV (13:50 UTC)

Stavanger-Sola flygplats

METAR

SHRA

ENZV 291350Z 02007KT 9999 -SHRA FEW050 BKN080 15/10 Q1003 NOSIG=

TAF

SHRACB

ENZV 291100Z 2912/3012 05008KT 9999 FEW040 BKN090 PROB30 2912/2918 33010KT TEMPO 2912/2920 SHRA SCT030CB BKN080 BECMG 3003/3006 33010KT=

ENHD (13:50 UTC)

Haugesund flygplats, Karmøy

METAR

ENHD 291350Z 06009KT CAVOK 19/07 Q1004=

TAF

ENHD 291100Z 2912/2921 05012KT CAVOK PROB30 2912/2918 29008KT BECMG 2918/2921 35008KT=

ENBR (13:50 UTC)

Bergen flygplats, Flesland

METAR

ENBR 291350Z VRB02KT CAVOK 22/05 Q1004 NOSIG RMK WIND 1200FT VRB02KT=

TAF

ENBR 291100Z 2912/3012 VRB05KT CAVOK PROB30 2912/2918 33010KT PROB40 3009/3012 34010KT=

ENBL (13:50 UTC)

Førde flygplats, Bringeland

METAR

ENBL 291350Z 16011KT 110V220 CAVOK 21/05 Q1006=

TAF

Ingen TAF hittades.

ENOV (13:50 UTC)

Ørsta-Volda flygplats, Hovden

METAR

ENOV 291350Z 24008KT CAVOK 21/10 Q1006 RMK WIND 2175FT 12003KT=

TAF

Ingen TAF hittades.

ENML (13:50 UTC)

Molde flygplats, Årø

METAR

ENML 291350Z 11008KT CAVOK 22/10 Q1007=

TAF

ENML 291100Z 2912/2921 24008KT CAVOK BECMG 2912/2914 07012KT BECMG 2919/2921 VRB05KT=

ENKB (13:50 UTC)

Kristiansund flygplats, Kvernberget

METAR

ENKB 291350Z 02017KT CAVOK 18/08 Q1008 RMK WIND 745FT 03021KT=

TAF

ENKB 291100Z 2912/2920 02015KT CAVOK BECMG 2918/2920 02005KT=

ENRO (13:50 UTC)

Røros flygplats

METAR

ENRO 291350Z 15007KT 080V200 CAVOK 19/01 Q1010=

TAF

ENRO 291100Z 2912/2918 15008KT CAVOK=

ENVA (13:50 UTC)

Trondheim flygplats, Værnes

METAR

ENVA 291350Z 24013KT 200V270 CAVOK 20/11 Q1009 NOSIG RMK WIND 670FT 30006KT=

TAF

ENVA 291100Z 2912/3012 26012KT CAVOK BECMG 2917/2920 VRB05KT PROB30 TEMPO 2920/3008 15015G25KT BECMG 3008/3011 15015G25KT=

ENOL (13:50 UTC)

Ørland flygplats

METAR

ENOL 291350Z 35012KT CAVOK 18/10 Q1010 NOSIG=

TAF

ENOL 291100Z 2912/3012 36012KT CAVOK BECMG 2922/2924 13012KT=

ENRM (13:20 UTC)

Rørvik flygplats, Ryum

METAR

ENRM 291320Z 01013KT CAVOK 16/08 Q1012=

TAF

ENRM 291100Z 2912/2920 03015KT CAVOK=

ENBN (13:50 UTC)

Brønnøysund flygplats, Brønnøy

METAR

ENBN 291350Z 35015KT CAVOK 15/08 Q1013=

TAF

ENBN 291100Z 2912/2919 35010KT CAVOK=

ENRA (13:50 UTC)

Mo i Rana flygplats, Røssvoll

METAR

ENRA 291350Z 35004KT CAVOK 18/01 Q1013=

TAF

ENRA 291100Z 2912/2921 VRB05KT 9999 SCT050=

ENBO (13:50 UTC)

Bodö flygplats

METAR

ENBO 291350Z 01012KT 9999 FEW030 13/06 Q1016 NOSIG=

TAF

ENBO 291100Z 2912/3012 36008KT 9999 FEW030 BECMG 2922/2924 09010KT=

ENSH (13:50 UTC)

Svolvær flygplats, Helle

METAR

ENSH 291350Z 04004KT 9999 SCT026 SCT047 11/06 Q1016=

TAF

ENSH 291100Z 2912/2920 01008KT 9999 FEW020 SCT040=

ENAN (13:50 UTC)

Andøya flygplats

METAR

ENAN 291350Z 28009KT 250V320 9999 FEW031 BKN044 10/05 Q1016=

TAF

ENAN 291100Z 2912/3012 29010KT 9999 FEW020 SCT040 BECMG 2916/2918 01012KT=

ENEV (13:50 UTC)

Harstad-Narvik flygplats

METAR

ENEV 291350Z 23008KT 190V260 9999 SCT057 14/04 Q1016 RMK WIND 1400FT 23013KT=

TAF

ENEV 291100Z 2912/2921 23008KT 9999 FEW025 SCT040 BECMG 2915/2917 32010KT=

ENDU (13:50 UTC)

Bardufoss flygplats

METAR

SHRA

ENDU 291350Z 36005KT 9999 VCSH FEW035 BKN045 12/06 Q1015 NOSIG RMK WIND 1100FT 32007KT WIND 2200FT 27007KT=

TAF

ENDU 291100Z 2912/3012 30008KT 9999 FEW030 SCT045=

ENTC (13:50 UTC)

Tromsø flygplats

METAR

ENTC 291350Z 07004KT 030V140 9999 FEW035 SCT044 BKN057 11/05 Q1016 NOSIG RMK WIND 2600FT VRB03KT=

TAF

SHRACB

ENTC 291100Z 2912/3012 22008KT 9999 FEW025 BKN060 TEMPO 2912/2915 28010KT SHRA SCT015CB BKN030 BECMG 2921/2924 02010KT=

ENAT (13:50 UTC)

Alta flygplats

METAR

ENAT 291350Z 33006KT 300V010 9999 FEW035 15/01 Q1014 RMK WIND 700FT 34006KT=

TAF

ENAT 291100Z 2912/2921 VRB05KT 9999 FEW025 SCT050 TEMPO 2912/2921 33010KT=

ENNA (13:50 UTC)

Lakselv flygplats

METAR

ENNA 291350Z 34009KT CAVOK 15/03 Q1014 RMK WIND 1800FT VRB03KT=

TAF

ENNA 291100Z 2912/3012 02008KT 9999 FEW025 BKN050=

ENHF (13:50 UTC)

Hammerfest flygplats

METAR

ENHF 291350Z 28006KT 240V340 9999 FEW045 SCT080 12/04 Q1014 RMK WIND 1254FT 34009KT=

TAF

ENHF 291100Z 2912/2921 27008KT 9999 FEW030 BKN050=

ENKR (13:50 UTC)

Kirkenes Airport, Høybuktmoen

METAR

ENKR 291350Z 12006KT 080V170 CAVOK 14/03 Q1015 RMK WIND 731FT 10010KT=

TAF

SHRACB

ENKR 291100Z 2912/2921 24008KT 9999 FEW020 SCT050 TEMPO 2912/2921 12010KT SHRA SCT025CB=

ENST (13:50 UTC)

Sandnessjøen Airport, Stokka

METAR

ENST 291350Z 01012KT 9999 FEW030 15/08 Q1013 RMK WIND 300FT 05010KT=

TAF

Ingen TAF hittades.

ENSB (13:50 UTC)

Svalbard Airport, Longyear

METAR

ENSB 291350Z 23016G26KT 200V260 9999 SCT020 BKN045 06/02 Q1006 RMK WIND 1400FT 23015KT=

TAF

ENSB 291100Z 2912/3012 24012KT 9999 SCT012 BKN025=

ENSK (13:50 UTC)

Stokmarknes Airport, Skagen

METAR

ENSK 291350Z 27006KT 9999 FEW020 SCT035 BKN045 11/06 Q1016=

TAF

Ingen TAF hittades.

ENSR (13:20 UTC)

Sørkjosen Airport

METAR

ENSR 291320Z 35010KT 9999 FEW030 BKN080 13/06 Q1015 WIND 1119FT 31017KT=

TAF

Ingen TAF hittades.

ENNM (13:50 UTC)

Namsos Airport, Høknesøra

METAR

ENNM 291350Z 32010KT CAVOK 20/07 Q1010=

TAF

Ingen TAF hittades.